• Join FlightAware (Why Join?)
  • Login
  • US Flag 
02:02AM EDT


 

Airport Tracker/Info


-or-


 

Live Flight TrackerFlight Track Log ✈ ASH3732 ✈ 05-Jul-2013 ✈ KIND - KORD

Flight Track Log - Related Links

Times and Time Zones

All times are in EDT time to prevent confusion due to time zone crossing. See the ASH3732 flight status page for this flight to view local times or setup timezone preferences in your user account.

Time Position Orientation Groundspeed Altitude Reporting Facility
EDT Latitude Longitude Course Direction KTS MPH feet Rate Location/Type
01:52PM 39.6667 -86.3667 218° Southwest 208 239 3,400  Level Indianapolis TRACON
01:53PM 39.6333 -86.4500 243° Southwest 289 333 5,600 2,520 Climbing Indianapolis TRACON
01:54PM 40.0315 -86.2438 42° Northeast  Level FlightAware Approximate
01:54PM 39.6961 -86.4844 337° Northwest 283 326 8,800  Level Indianapolis Center
01:55PM 40.0930 -86.1705 46° Northeast  Level FlightAware Approximate
01:55PM 39.7744 -86.4364 25° Northeast 304 350 11,100  Level Indianapolis Center
01:56PM 40.1512 -86.0928 46° Northeast  Level FlightAware Approximate
01:56PM 39.8647 -86.3831 24° Northeast 346 398 12,500  Level Indianapolis Center
01:57PM 39.9583 -86.3303 23° Northeast 362 417 14,500 1,740 Climbing Indianapolis Center
01:58PM 40.0428 -86.2597 33° Northeast 365 420 16,100 1,440 Climbing Indianapolis Center
01:59PM 40.1742 -86.2400 North 399 459 17,700 1,500 Climbing Chicago Center
02:00PM 40.2897 -86.2394 360° North 415 478 19,400 1,080 Climbing Chicago Center
02:01PM 40.4072 -86.2458 358° North 425 489 20,000 240 Climbing Chicago Center
02:02PM 40.5211 -86.2700 351° North 424 488 20,000  Level Chicago Center
02:03PM 40.6083 -86.3611 322° Northwest 406 467 20,000  Level Chicago Center
02:04PM 40.7075 -86.4686 321° Northwest 407 468 20,000  Level Chicago Center
02:05PM 40.7953 -86.5639 321° Northwest 408 470 20,000  Level Chicago Center
02:06PM 40.8822 -86.6606 320° Northwest 407 468 20,000  Level Chicago Center
02:07PM 40.9811 -86.7669 321° Northwest 413 475 20,000 -960 Level Chicago Center
02:08PM 41.0672 -86.8611 321° Northwest 408 470 18,100 -1,980 Descending Chicago Center
02:09PM 41.1508 -86.9539 320° Northwest 397 457 16,000 -2,160 Descending Chicago Center
02:10PM 41.2303 -87.0419 320° Northwest 380 437 13,700 -2,220 Descending Chicago Center
02:11PM 41.3036 -87.1269 319° Northwest 357 411 11,500 -1,320 Descending Chicago Center
02:12PM 41.3781 -87.2081 321° Northwest 351 404 11,000 -300 Descending Chicago Center
02:13PM 41.4639 -87.3117 318° Northwest 352 405 11,000  Level Chicago Center
02:14PM 41.5378 -87.3972 319° Northwest 355 409 11,000  Level Chicago Center
02:15PM 41.6133 -87.4811 320° Northwest 356 410 11,000 -180 Level Chicago Center
02:16PM 41.6894 -87.5631 321° Northwest 357 411 10,700 -600 Descending Chicago Center
02:17PM 41.7519 -87.6356 319° Northwest 310 357 9,800 -1,320 Descending Chicago Center
02:18PM 41.8236 -87.7147 321° Northwest 284 327 8,000 -1,380 Descending Chicago Center
02:20PM 41.8761 -87.7914 313° West 282 325 7,000 -540 Descending Chicago Center
02:21PM 41.8831 -87.8939 275° West 284 327 7,000  Level Chicago Center
02:22PM 41.8839 -87.9892 271° West 265 305 7,000 -600 Level Chicago Center
02:23PM 41.8842 -88.0706 270° West 229 264 5,800 -1,200 Descending Chicago Center